Time;durP1;ratioP1;P1;durP2;ratioP2;P2;SDS_P1;SDS_P2;PMS_P1;PMS_P2;Temp;Humidity;BMP_temperature;BMP_pressure;BME280_temperature;BME280_humidity;BME280_pressure;Samples;Min_cycle;Max_cycle;Signal;HPM_P1;HPM_P2
2023/11/24 00:01:17;;;;;;;;;;;19.30;66.50;;;;;;4959174;28;1173549;-72
2023/11/24 00:03:43;;;;;;;;;;;19.30;66.50;;;;;;4999340;28;1474;-73
2023/11/24 00:06:08;;;;;;;;;;;19.30;66.50;;;;;;4996264;28;1277;-72
2023/11/24 00:08:35;;;;;;;;;;;19.30;66.50;;;;;;4996756;28;1357;-72
2023/11/24 00:11:03;;;;;;;;;;;19.30;66.50;;;;;;4999306;28;1558;-72
2023/11/24 00:13:29;;;;;;;;;;;19.30;66.50;;;;;;5000959;28;1383;-72
2023/11/24 00:15:54;;;;;;;;;;;19.30;66.70;;;;;;4988890;28;1479;-71
2023/11/24 00:18:21;;;;;;;;;;;19.30;66.60;;;;;;4973175;28;1486;-71
2023/11/24 00:20:47;;;;;;;;;;;19.30;66.60;;;;;;4999725;28;1973;-72
2023/11/24 00:23:13;;;;;;;;;;;19.30;66.60;;;;;;4982106;28;1420;-72
2023/11/24 00:25:38;;;;;;;;;;;19.30;66.60;;;;;;4990083;28;1308;-71
2023/11/24 00:28:04;;;;;;;;;;;19.30;66.70;;;;;;5001060;28;1568;-71
2023/11/24 00:30:30;;;;;;;;;;;19.30;66.60;;;;;;5001999;28;1366;-71
2023/11/24 00:32:55;;;;;;;;;;;19.30;66.70;;;;;;5005584;28;1172;-71
2023/11/24 00:35:23;;;;;;;;;;;19.30;66.70;;;;;;5001999;28;1433;-72
2023/11/24 00:37:49;;;;;;;;;;;19.30;66.70;;;;;;4998147;28;1415;-72
2023/11/24 00:40:17;;;;;;;;;;;19.30;66.70;;;;;;5004207;28;1910;-72
2023/11/24 00:42:43;;;;;;;;;;;19.30;66.70;;;;;;5001706;28;1430;-72
2023/11/24 00:45:09;;;;;;;;;;;19.30;66.70;;;;;;4998594;28;1480;-72
2023/11/24 00:47:34;;;;;;;;;;;19.30;66.80;;;;;;4999457;28;1253;-71
2023/11/24 00:50:00;;;;;;;;;;;19.30;66.70;;;;;;4999934;28;1364;-71
2023/11/24 00:52:28;;;;;;;;;;;19.30;66.80;;;;;;5000924;28;1300;-72
2023/11/24 00:54:54;;;;;;;;;;;19.30;66.80;;;;;;4981726;28;1484;-72
2023/11/24 00:57:19;;;;;;;;;;;19.30;66.80;;;;;;4987722;28;1384;-72
2023/11/24 00:59:45;;;;;;;;;;;19.30;66.80;;;;;;4996154;28;1974;-72
2023/11/24 01:02:10;;;;;;;;;;;19.30;66.80;;;;;;5002185;28;1662;-71
2023/11/24 01:04:36;;;;;;;;;;;19.30;66.80;;;;;;4992828;28;1399;-71
2023/11/24 01:07:01;;;;;;;;;;;19.30;66.90;;;;;;5001596;28;1512;-72
2023/11/24 01:09:27;;;;;;;;;;;19.20;66.80;;;;;;5005062;28;1459;-72
2023/11/24 01:11:52;;;;;;;;;;;19.30;66.90;;;;;;4987637;28;1523;-72
2023/11/24 01:14:18;;;;;;;;;;;19.20;66.80;;;;;;5003084;28;1375;-71
2023/11/24 01:16:44;;;;;;;;;;;19.30;66.90;;;;;;5004002;28;1379;-72
2023/11/24 01:19:09;;;;;;;;;;;19.30;66.90;;;;;;5004005;28;1468;-72
2023/11/24 01:21:35;;;;;;;;;;;19.20;66.80;;;;;;5001686;28;1955;-71
2023/11/24 01:24:02;;;;;;;;;;;19.30;66.90;;;;;;5001216;28;1488;-71
2023/11/24 01:26:30;;;;;;;;;;;19.20;66.90;;;;;;5003470;28;1268;-72
2023/11/24 01:28:56;;;;;;;;;;;19.20;66.90;;;;;;4991442;28;1187;-72
2023/11/24 01:31:22;;;;;;;;;;;19.20;66.90;;;;;;5004147;28;1503;-69
2023/11/24 01:33:48;;;;;;;;;;;19.20;66.90;;;;;;5007269;28;1320;-71
2023/11/24 01:36:14;;;;;;;;;;;19.20;66.90;;;;;;5002698;28;1497;-71
2023/11/24 01:38:39;;;;;;;;;;;19.20;66.90;;;;;;5001671;28;1372;-71
2023/11/24 01:41:05;;;;;;;;;;;19.20;67.00;;;;;;5002849;28;1969;-71
2023/11/24 01:43:30;;;;;;;;;;;19.20;66.90;;;;;;5002360;28;1399;-72
2023/11/24 01:45:56;;;;;;;;;;;19.20;67.00;;;;;;4985309;28;1519;-70
2023/11/24 01:48:21;;;;;;;;;;;19.20;67.00;;;;;;5003221;28;1391;-70
2023/11/24 01:50:47;;;;;;;;;;;19.20;67.00;;;;;;5000953;28;1631;-71
2023/11/24 01:53:13;;;;;;;;;;;19.20;67.00;;;;;;4998926;28;1349;-72
2023/11/24 01:55:39;;;;;;;;;;;19.20;67.00;;;;;;5004140;28;1382;-72
2023/11/24 01:58:05;;;;;;;;;;;19.20;67.00;;;;;;5001550;28;1502;-69
2023/11/24 02:00:30;;;;;;;;;;;19.20;67.00;;;;;;5004574;28;1910;-71
2023/11/24 02:02:57;;;;;;;;;;;19.20;67.00;;;;;;4993389;28;1358;-70
2023/11/24 02:05:22;;;;;;;;;;;19.20;67.10;;;;;;5002348;28;1655;-71
2023/11/24 02:07:47;;;;;;;;;;;19.20;67.10;;;;;;5001773;28;1451;-71
2023/11/24 02:10:16;;;;;;;;;;;19.20;67.10;;;;;;4991401;28;1345;-72
2023/11/24 02:12:41;;;;;;;;;;;19.20;67.10;;;;;;5000227;28;1403;-72
2023/11/24 02:15:07;;;;;;;;;;;19.20;67.10;;;;;;5001300;28;1695;-73
2023/11/24 02:17:33;;;;;;;;;;;19.20;67.10;;;;;;5002917;28;1432;-70
2023/11/24 02:19:58;;;;;;;;;;;19.20;67.10;;;;;;5003875;28;1906;-71
2023/11/24 02:22:25;;;;;;;;;;;19.10;67.00;;;;;;5005668;28;935;-71
2023/11/24 02:24:51;;;;;;;;;;;19.20;67.20;;;;;;5004160;28;1531;-71
2023/11/24 02:27:20;;;;;;;;;;;19.20;67.10;;;;;;5002674;28;1767;-71
2023/11/24 02:29:46;;;;;;;;;;;19.20;67.10;;;;;;4987934;28;1501;-71
2023/11/24 02:32:12;;;;;;;;;;;19.20;67.10;;;;;;5002136;28;1404;-71
2023/11/24 02:34:37;;;;;;;;;;;19.10;67.10;;;;;;4985105;28;1480;-71
2023/11/24 02:37:03;;;;;;;;;;;19.20;67.20;;;;;;4990591;28;1374;-70
2023/11/24 02:39:29;;;;;;;;;;;19.10;67.10;;;;;;5001005;28;1309;-71
2023/11/24 02:41:55;;;;;;;;;;;19.10;67.10;;;;;;4989238;28;1918;-72
2023/11/24 02:44:20;;;;;;;;;;;19.10;67.10;;;;;;5000364;28;1396;-72
2023/11/24 02:46:47;;;;;;;;;;;19.10;67.20;;;;;;4987055;28;1506;-72
2023/11/24 02:49:13;;;;;;;;;;;19.10;67.10;;;;;;4998327;28;1374;-70
2023/11/24 02:51:39;;;;;;;;;;;19.10;67.20;;;;;;5000009;28;1372;-70
2023/11/24 02:54:06;;;;;;;;;;;19.10;67.20;;;;;;5003007;28;1502;-70
2023/11/24 02:56:32;;;;;;;;;;;19.10;67.20;;;;;;4981972;28;1403;-70
2023/11/24 02:58:58;;;;;;;;;;;19.10;67.20;;;;;;5000046;28;1348;-70
2023/11/24 03:01:24;;;;;;;;;;;19.10;67.20;;;;;;5000610;28;1898;-70
2023/11/24 03:03:49;;;;;;;;;;;19.10;67.20;;;;;;5004576;28;1430;-71
2023/11/24 03:06:15;;;;;;;;;;;19.10;67.20;;;;;;4984331;28;1377;-72
2023/11/24 03:08:40;;;;;;;;;;;19.10;67.20;;;;;;5000295;28;1458;-72
2023/11/24 03:11:06;;;;;;;;;;;19.10;67.20;;;;;;5002508;28;1428;-72
2023/11/24 03:13:32;;;;;;;;;;;19.10;67.20;;;;;;5001815;28;1369;-71
2023/11/24 03:15:57;;;;;;;;;;;19.10;67.20;;;;;;5002224;28;1463;-71
2023/11/24 03:18:23;;;;;;;;;;;19.10;67.20;;;;;;4999697;28;1470;-71
2023/11/24 03:20:48;;;;;;;;;;;19.10;67.30;;;;;;5001282;28;1902;-71
2023/11/24 03:23:14;;;;;;;;;;;19.10;67.20;;;;;;4983427;28;1393;-70
2023/11/24 03:25:40;;;;;;;;;;;19.10;67.20;;;;;;5002723;28;1398;-71
2023/11/24 03:28:06;;;;;;;;;;;19.10;67.20;;;;;;4989797;28;1422;-71
2023/11/24 03:30:31;;;;;;;;;;;19.10;67.30;;;;;;4984481;28;1474;-71
2023/11/24 03:32:57;;;;;;;;;;;19.10;67.20;;;;;;5003706;28;1473;-71
2023/11/24 03:35:23;;;;;;;;;;;19.10;67.30;;;;;;5000276;28;1453;-71
2023/11/24 03:37:48;;;;;;;;;;;19.10;67.40;;;;;;5000746;28;1430;-70
2023/11/24 03:40:14;;;;;;;;;;;19.10;67.30;;;;;;5002486;28;1890;-70
2023/11/24 03:42:39;;;;;;;;;;;19.10;67.30;;;;;;5001648;28;1570;-70
2023/11/24 03:45:06;;;;;;;;;;;19.10;67.40;;;;;;4987977;28;1481;-70
2023/11/24 03:47:31;;;;;;;;;;;19.10;67.30;;;;;;4999365;28;1362;-70
2023/11/24 03:49:59;;;;;;;;;;;19.10;67.40;;;;;;5000429;28;1384;-70
2023/11/24 03:52:25;;;;;;;;;;;19.10;67.40;;;;;;4990577;28;1506;-70
2023/11/24 03:54:51;;;;;;;;;;;19.10;67.30;;;;;;5001082;28;1478;-70
2023/11/24 03:57:16;;;;;;;;;;;19.10;67.40;;;;;;5000486;28;1360;-71
2023/11/24 03:59:42;;;;;;;;;;;19.10;67.40;;;;;;4988891;28;1973;-71
2023/11/24 04:02:07;;;;;;;;;;;19.10;67.40;;;;;;5000069;28;1472;-74
2023/11/24 04:04:33;;;;;;;;;;;19.10;67.40;;;;;;4985269;28;1546;-72
2023/11/24 04:06:58;;;;;;;;;;;19.10;67.40;;;;;;5001506;28;1427;-72
2023/11/24 04:09:25;;;;;;;;;;;19.10;67.40;;;;;;5000525;28;1288;-73
2023/11/24 04:11:51;;;;;;;;;;;19.10;67.40;;;;;;4990693;28;1514;-73
2023/11/24 04:14:16;;;;;;;;;;;19.10;67.40;;;;;;4983367;28;1800;-73
2023/11/24 04:16:42;;;;;;;;;;;19.10;67.40;;;;;;4984644;28;1480;-72
2023/11/24 04:19:07;;;;;;;;;;;19.10;67.40;;;;;;5000946;28;1502;-73
2023/11/24 04:21:34;;;;;;;;;;;19.10;67.40;;;;;;4999214;28;1961;-73
2023/11/24 04:23:59;;;;;;;;;;;19.10;67.40;;;;;;5001534;28;1375;-73
2023/11/24 04:26:25;;;;;;;;;;;19.10;67.40;;;;;;5002239;28;1480;-73
2023/11/24 04:28:50;;;;;;;;;;;19.00;67.40;;;;;;4982462;28;1430;-73
2023/11/24 04:31:16;;;;;;;;;;;19.00;67.40;;;;;;4998632;28;1664;-72
2023/11/24 04:33:42;;;;;;;;;;;19.10;67.50;;;;;;4989822;28;1412;-73
2023/11/24 04:36:08;;;;;;;;;;;19.10;67.50;;;;;;5002935;28;1409;-73
2023/11/24 04:38:33;;;;;;;;;;;19.10;67.50;;;;;;5004683;28;1254;-73
2023/11/24 04:41:00;;;;;;;;;;;19.00;67.40;;;;;;4986291;28;1902;-73
2023/11/24 04:43:27;;;;;;;;;;;19.10;67.50;;;;;;5006421;28;1457;-73
2023/11/24 04:45:52;;;;;;;;;;;19.10;67.50;;;;;;5007029;28;1395;-73
2023/11/24 04:48:18;;;;;;;;;;;19.00;67.40;;;;;;4986589;28;1538;-73
2023/11/24 04:50:43;;;;;;;;;;;19.10;67.50;;;;;;5004502;28;1445;-73
2023/11/24 04:53:09;;;;;;;;;;;19.00;67.40;;;;;;5003504;28;1633;-73
2023/11/24 04:55:34;;;;;;;;;;;19.00;67.40;;;;;;5003522;28;1466;-72
2023/11/24 04:58:00;;;;;;;;;;;19.00;67.40;;;;;;4992843;28;1455;-72
2023/11/24 05:00:25;;;;;;;;;;;19.00;67.50;;;;;;5004617;28;1934;-72
2023/11/24 05:02:51;;;;;;;;;;;19.10;67.50;;;;;;5003039;28;1436;-72
2023/11/24 05:05:19;;;;;;;;;;;19.10;67.50;;;;;;5000477;28;1479;-71
2023/11/24 05:07:44;;;;;;;;;;;19.00;67.50;;;;;;5001217;28;1323;-74
2023/11/24 05:10:10;;;;;;;;;;;19.00;67.50;;;;;;5006412;28;1216;-74
2023/11/24 05:12:35;;;;;;;;;;;19.00;67.50;;;;;;5002744;28;995;-74
2023/11/24 05:15:07;;;;;;;;;;;19.00;67.50;;;;;;5006058;28;1272;-73
2023/11/24 05:17:33;;;;;;;;;;;19.00;67.50;;;;;;4988002;28;1514;-74
2023/11/24 05:19:59;;;;;;;;;;;19.00;67.50;;;;;;4993511;28;1961;-73
2023/11/24 05:22:24;;;;;;;;;;;19.00;67.50;;;;;;4986827;28;1233;-74
2023/11/24 05:24:50;;;;;;;;;;;19.00;67.50;;;;;;5001707;28;1396;-73
2023/11/24 05:27:15;;;;;;;;;;;19.00;68.20;;;;;;5008089;28;1493;-73
2023/11/24 05:29:41;;;;;;;;;;;19.00;67.50;;;;;;5002799;28;1504;-73
2023/11/24 05:32:06;;;;;;;;;;;19.00;67.50;;;;;;5002186;28;1374;-73
2023/11/24 05:34:32;;;;;;;;;;;19.00;67.50;;;;;;4984116;28;1321;-73
2023/11/24 05:37:03;;;;;;;;;;;19.00;67.50;;;;;;4992117;28;1496;-73
2023/11/24 05:39:28;;;;;;;;;;;19.00;67.60;;;;;;5000617;28;1399;-73
2023/11/24 05:41:54;;;;;;;;;;;19.00;68.30;;;;;;5002784;28;1922;-71
2023/11/24 05:44:19;;;;;;;;;;;19.00;67.50;;;;;;4991797;28;1382;-71
2023/11/24 05:46:45;;;;;;;;;;;19.00;67.50;;;;;;5005254;28;1452;-71
2023/11/24 05:49:11;;;;;;;;;;;19.00;67.60;;;;;;5000223;28;1381;-71
2023/11/24 05:51:36;;;;;;;;;;;19.00;67.50;;;;;;5004436;28;1394;-71
2023/11/24 05:54:02;;;;;;;;;;;19.00;67.60;;;;;;5002975;28;1322;-71
2023/11/24 05:56:27;;;;;;;;;;;19.00;67.60;;;;;;5003361;28;1580;-71
2023/11/24 05:58:53;;;;;;;;;;;19.00;67.60;;;;;;5002091;28;1467;-71
2023/11/24 06:01:21;;;;;;;;;;;19.00;67.60;;;;;;4991275;28;1977;-71
2023/11/24 06:03:47;;;;;;;;;;;19.00;67.60;;;;;;4991721;28;1435;-71
2023/11/24 06:06:12;;;;;;;;;;;19.00;67.60;;;;;;4985181;28;1533;-71
2023/11/24 06:08:38;;;;;;;;;;;19.00;67.60;;;;;;5002063;28;1327;-71
2023/11/24 06:11:03;;;;;;;;;;;19.00;67.60;;;;;;5001774;28;1644;-71
2023/11/24 06:13:29;;;;;;;;;;;19.00;67.60;;;;;;4985221;28;1420;-72
2023/11/24 06:15:58;;;;;;;;;;;19.00;67.50;;;;;;5001369;28;1462;-71
2023/11/24 06:18:24;;;;;;;;;;;19.00;67.60;;;;;;4990513;28;1494;-73
2023/11/24 06:20:49;;;;;;;;;;;19.10;67.50;;;;;;4991073;28;1902;-72
2023/11/24 06:23:15;;;;;;;;;;;19.20;67.60;;;;;;4986784;28;1383;-70
2023/11/24 06:25:40;;;;;;;;;;;19.30;67.50;;;;;;5002464;28;1376;-71
2023/11/24 06:28:06;;;;;;;;;;;19.40;67.30;;;;;;4999443;28;1906;-73
2023/11/24 06:30:31;;;;;;;;;;;19.40;67.00;;;;;;4978060;28;1905;-71
2023/11/24 06:32:57;;;;;;;;;;;19.60;66.60;;;;;;4990956;28;1208;-72
2023/11/24 06:35:22;;;;;;;;;;;19.70;66.20;;;;;;5002418;28;1551;-72
2023/11/24 06:37:48;;;;;;;;;;;19.90;65.90;;;;;;5000773;28;1266;-72
2023/11/24 06:40:13;;;;;;;;;;;20.00;65.50;;;;;;5001083;28;1906;-72
2023/11/24 06:42:40;;;;;;;;;;;20.10;65.10;;;;;;5002200;28;1660;-72
2023/11/24 06:45:08;;;;;;;;;;;20.20;64.80;;;;;;5002306;28;1554;-74
2023/11/24 06:47:33;;;;;;;;;;;20.40;64.50;;;;;;4997961;28;1345;-73
2023/11/24 06:49:59;;;;;;;;;;;20.50;64.20;;;;;;5000999;28;1540;-72
2023/11/24 06:52:24;;;;;;;;;;;20.60;63.80;;;;;;5000394;28;1478;-71
2023/11/24 06:54:50;;;;;;;;;;;20.70;63.60;;;;;;5001679;28;1477;-73
2023/11/24 06:57:16;;;;;;;;;;;20.80;63.30;;;;;;4989358;28;1436;-72
2023/11/24 06:59:42;;;;;;;;;;;20.90;63.00;;;;;;5002779;28;1960;-73
2023/11/24 07:02:07;;;;;;;;;;;21.00;62.80;;;;;;4990927;28;1396;-73
2023/11/24 07:04:33;;;;;;;;;;;21.00;62.50;;;;;;5000410;28;1765;-71
2023/11/24 07:06:59;;;;;;;;;;;21.10;62.30;;;;;;5003011;28;1577;-73
2023/11/24 07:09:24;;;;;;;;;;;21.20;62.10;;;;;;5000566;28;947;-72
2023/11/24 07:11:50;;;;;;;;;;;21.20;61.90;;;;;;4981660;28;1479;-71
2023/11/24 07:14:16;;;;;;;;;;;21.30;61.80;;;;;;5000813;28;1449;-71
2023/11/24 07:16:41;;;;;;;;;;;21.30;61.60;;;;;;4998198;28;1234;-72
2023/11/24 07:19:07;;;;;;;;;;;21.30;61.50;;;;;;4997966;28;1447;-72
2023/11/24 07:21:34;;;;;;;;;;;21.30;61.40;;;;;;4998779;28;1965;-72
2023/11/24 07:24:01;;;;;;;;;;;21.30;61.40;;;;;;4982761;28;1551;-74
2023/11/24 07:26:28;;;;;;;;;;;21.40;61.40;;;;;;4999511;28;1343;-72
2023/11/24 07:28:55;;;;;;;;;;;21.40;61.40;;;;;;4997191;28;1283;-73
2023/11/24 07:31:21;;;;;;;;;;;21.40;61.30;;;;;;4989169;28;1487;-73
2023/11/24 07:33:50;;;;;;;;;;;21.40;61.30;;;;;;4982239;28;1443;-71
2023/11/24 07:36:16;;;;;;;;;;;21.40;61.30;;;;;;5000190;28;1461;-71
2023/11/24 07:38:42;;;;;;;;;;;21.40;61.20;;;;;;5002028;28;1149;-71
2023/11/24 07:41:09;;;;;;;;;;;21.40;61.20;;;;;;4999947;28;1952;-71
2023/11/24 07:43:35;;;;;;;;;;;21.40;61.20;;;;;;5000948;28;1531;-71
2023/11/24 07:46:00;;;;;;;;;;;21.40;61.20;;;;;;5000715;28;1405;-70
2023/11/24 07:48:26;;;;;;;;;;;21.40;61.20;;;;;;5000303;28;946;-70
2023/11/24 07:50:52;;;;;;;;;;;21.40;61.20;;;;;;4989583;28;1029;-71
2023/11/24 07:53:17;;;;;;;;;;;21.30;61.10;;;;;;4998810;28;1302;-72
2023/11/24 07:55:43;;;;;;;;;;;21.30;61.20;;;;;;4993809;28;4298;-72
2023/11/24 07:58:08;;;;;;;;;;;21.30;61.20;;;;;;4999232;28;1433;-72
2023/11/24 08:00:34;;;;;;;;;;;21.30;61.20;;;;;;5003113;28;1914;-74
2023/11/24 08:03:01;;;;;;;;;;;21.30;62.10;;;;;;5001724;28;1527;-73
2023/11/24 08:05:26;;;;;;;;;;;21.30;61.40;;;;;;5000319;28;1487;-73
2023/11/24 08:07:52;;;;;;;;;;;21.30;61.40;;;;;;4982487;28;1508;-72
2023/11/24 08:10:17;;;;;;;;;;;21.30;61.40;;;;;;4989237;28;1571;-71
2023/11/24 08:12:45;;;;;;;;;;;21.30;61.50;;;;;;5003511;28;1453;-71
2023/11/24 08:15:12;;;;;;;;;;;21.30;61.50;;;;;;4986177;28;1508;-71
2023/11/24 08:17:38;;;;;;;;;;;21.20;61.60;;;;;;5005207;28;1334;-72
2023/11/24 08:20:05;;;;;;;;;;;21.20;61.70;;;;;;5006932;28;1898;-71
2023/11/24 08:22:31;;;;;;;;;;;21.20;61.80;;;;;;5006039;28;1227;-71
2023/11/24 08:24:56;;;;;;;;;;;21.20;61.80;;;;;;4992296;28;1481;-71
2023/11/24 08:27:22;;;;;;;;;;;21.10;61.90;;;;;;5002346;28;1808;-71
2023/11/24 08:29:48;;;;;;;;;;;21.10;62.00;;;;;;4993153;28;1984;-71
2023/11/24 08:32:13;;;;;;;;;;;21.10;62.10;;;;;;5006580;28;1345;-71
2023/11/24 08:34:42;;;;;;;;;;;21.00;62.10;;;;;;5005475;28;1537;-72
2023/11/24 08:37:08;;;;;;;;;;;21.00;62.20;;;;;;4992983;28;1691;-72
2023/11/24 08:39:33;;;;;;;;;;;21.00;62.30;;;;;;4969529;28;1578;-72
2023/11/24 08:41:59;;;;;;;;;;;21.00;62.40;;;;;;4988635;28;1979;-71
2023/11/24 08:44:24;;;;;;;;;;;21.00;62.50;;;;;;5002884;28;1450;-71
2023/11/24 08:46:51;;;;;;;;;;;20.90;62.50;;;;;;5005840;28;1554;-72
2023/11/24 08:49:17;;;;;;;;;;;20.90;62.60;;;;;;4975441;28;1586;-73
2023/11/24 08:51:43;;;;;;;;;;;20.90;62.70;;;;;;5002231;28;1531;-73
2023/11/24 08:54:09;;;;;;;;;;;20.90;62.70;;;;;;4986468;28;1545;-73
2023/11/24 08:56:35;;;;;;;;;;;20.80;62.80;;;;;;4966449;28;1397;-73
2023/11/24 08:59:03;;;;;;;;;;;20.80;62.90;;;;;;4992371;28;1360;-73
2023/11/24 09:01:28;;;;;;;;;;;20.80;62.90;;;;;;5004330;28;1963;-73
2023/11/24 09:03:54;;;;;;;;;;;20.80;63.00;;;;;;5002656;28;1397;-73
2023/11/24 09:06:26;;;;;;;;;;;20.80;63.00;;;;;;5006109;28;1466;-73
2023/11/24 09:08:52;;;;;;;;;;;20.80;63.00;;;;;;5004267;28;1314;-73
2023/11/24 09:11:17;;;;;;;;;;;20.70;63.00;;;;;;5003335;28;1486;-73
2023/11/24 09:13:43;;;;;;;;;;;20.70;63.00;;;;;;4986322;28;1459;-72
2023/11/24 09:16:08;;;;;;;;;;;20.80;63.10;;;;;;5005947;28;1523;-72
2023/11/24 09:18:34;;;;;;;;;;;20.70;63.10;;;;;;4992029;28;1500;-73
2023/11/24 09:20:59;;;;;;;;;;;20.70;63.10;;;;;;5004723;28;1930;-72
2023/11/24 09:23:25;;;;;;;;;;;20.70;63.10;;;;;;5005617;28;1431;-71
2023/11/24 09:25:50;;;;;;;;;;;20.70;63.10;;;;;;5004314;28;1375;-71
2023/11/24 09:28:20;;;;;;;;;;;20.70;63.10;;;;;;5002491;28;1390;-71
2023/11/24 09:30:45;;;;;;;;;;;20.70;63.20;;;;;;5002059;28;1490;-71
2023/11/24 09:33:11;;;;;;;;;;;20.70;63.30;;;;;;5002827;28;1460;-72
2023/11/24 09:35:36;;;;;;;;;;;20.70;63.30;;;;;;5003329;28;1363;-71
2023/11/24 09:38:02;;;;;;;;;;;20.60;63.30;;;;;;5005511;28;1378;-71
2023/11/24 09:40:28;;;;;;;;;;;20.60;63.40;;;;;;5005283;28;1947;-71
2023/11/24 09:42:53;;;;;;;;;;;20.60;63.40;;;;;;4985730;28;1558;-70
2023/11/24 09:45:20;;;;;;;;;;;20.60;63.50;;;;;;5003024;28;1494;-70
2023/11/24 09:47:49;;;;;;;;;;;20.60;63.50;;;;;;5005540;28;1434;-71
2023/11/24 09:50:15;;;;;;;;;;;20.60;63.60;;;;;;5001624;28;1523;-72
2023/11/24 09:52:41;;;;;;;;;;;20.60;63.60;;;;;;5004811;28;1444;-72
2023/11/24 09:55:07;;;;;;;;;;;20.50;63.60;;;;;;4992298;28;1487;-73
2023/11/24 09:57:33;;;;;;;;;;;20.50;63.60;;;;;;5001855;28;1440;-71
2023/11/24 09:59:59;;;;;;;;;;;20.50;63.60;;;;;;4985099;28;1967;-73
2023/11/24 10:02:25;;;;;;;;;;;20.50;63.70;;;;;;4999507;28;1332;-71
2023/11/24 10:04:51;;;;;;;;;;;20.50;63.70;;;;;;5003894;28;1572;-71
2023/11/24 10:07:20;;;;;;;;;;;20.50;63.70;;;;;;5005075;28;1513;-74
2023/11/24 10:09:49;;;;;;;;;;;20.50;63.70;;;;;;5001119;28;1426;-72
2023/11/24 10:12:15;;;;;;;;;;;20.50;63.70;;;;;;4984190;28;1240;-71
2023/11/24 10:14:43;;;;;;;;;;;20.50;63.70;;;;;;5000551;28;1579;-72
2023/11/24 10:17:09;;;;;;;;;;;20.50;63.60;;;;;;4988379;28;1299;-71
2023/11/24 10:19:37;;;;;;;;;;;20.50;63.70;;;;;;5004053;28;1378;-71
2023/11/24 10:22:03;;;;;;;;;;;20.50;63.70;;;;;;5002021;28;1989;-72
2023/11/24 10:24:32;;;;;;;;;;;20.50;63.70;;;;;;4983979;28;1440;-72
2023/11/24 10:26:58;;;;;;;;;;;20.50;63.70;;;;;;5002725;28;1402;-72
2023/11/24 10:29:27;;;;;;;;;;;20.50;63.80;;;;;;4969813;28;1301;-72
2023/11/24 10:31:53;;;;;;;;;;;20.50;63.80;;;;;;5001451;28;1284;-72
2023/11/24 10:34:18;;;;;;;;;;;20.40;63.70;;;;;;5000501;28;1717;-72
2023/11/24 10:36:45;;;;;;;;;;;20.40;63.80;;;;;;5005098;28;1409;-72
2023/11/24 10:39:12;;;;;;;;;;;20.40;63.80;;;;;;5001273;28;1293;-72
2023/11/24 10:41:40;;;;;;;;;;;20.40;63.90;;;;;;4990861;28;1970;-72
2023/11/24 10:44:06;;;;;;;;;;;20.40;63.90;;;;;;5001474;28;1378;-72
2023/11/24 10:46:32;;;;;;;;;;;20.40;63.90;;;;;;4988544;28;1499;-72
2023/11/24 10:49:12;;;;;;;;;;;20.40;63.90;;;;;;4973721;28;1386;-73
2023/11/24 10:51:38;;;;;;;;;;;20.40;63.90;;;;;;4982623;28;1437;-72
2023/11/24 10:54:03;;;;;;;;;;;20.40;64.00;;;;;;5000087;28;1276;-72
2023/11/24 10:56:29;;;;;;;;;;;20.40;64.00;;;;;;5002743;28;1303;-72
2023/11/24 10:58:56;;;;;;;;;;;20.40;64.00;;;;;;4988031;28;1347;-72
2023/11/24 11:01:26;;;;;;;;;;;20.40;64.10;;;;;;5004753;28;1977;-71
2023/11/24 11:03:52;;;;;;;;;;;20.30;64.00;;;;;;4999194;28;2168;-72
2023/11/24 11:06:44;;;;;;;;;;;20.30;64.00;;;;;;4973170;28;1809;-72
2023/11/24 11:11:45;;;;;;;;;;;20.30;64.20;;;;;;4981132;28;1423;-71
2023/11/24 11:14:13;;;;;;;;;;;20.30;64.20;;;;;;4999687;28;1302;-70
2023/11/24 11:16:38;;;;;;;;;;;20.30;64.20;;;;;;4998814;28;1510;-70
2023/11/24 11:19:34;;;;;;;;;;;20.30;64.30;;;;;;4999318;28;1300;-72
2023/11/24 11:22:07;;;;;;;;;;;20.30;64.30;;;;;;4996292;28;1980;-72
2023/11/24 11:24:34;;;;;;;;;;;20.30;64.40;;;;;;5002194;28;1847;-72
2023/11/24 11:26:59;;;;;;;;;;;20.20;64.30;;;;;;5001545;28;1383;-72
2023/11/24 11:29:26;;;;;;;;;;;20.20;64.40;;;;;;5000960;28;1428;-72
2023/11/24 11:31:52;;;;;;;;;;;20.20;64.40;;;;;;4988818;28;1374;-72
2023/11/24 11:34:17;;;;;;;;;;;20.20;64.50;;;;;;4981048;28;1352;-73
2023/11/24 11:37:01;;;;;;;;;;;20.20;64.60;;;;;;5001309;28;1263;-73
2023/11/24 11:39:29;;;;;;;;;;;20.20;64.70;;;;;;5002240;28;1312;-73
2023/11/24 11:41:55;;;;;;;;;;;20.10;64.70;;;;;;4973402;28;1906;-72
2023/11/24 11:44:24;;;;;;;;;;;20.20;64.80;;;;;;4982649;28;1746;-74
2023/11/24 11:47:26;;;;;;;;;;;20.10;64.70;;;;;;4992165;28;1417;-73
2023/11/24 11:49:53;;;;;;;;;;;20.10;64.80;;;;;;4999604;28;1921;-72
2023/11/24 11:52:20;;;;;;;;;;;20.10;64.80;;;;;;5002850;28;1426;-72
2023/11/24 11:54:46;;;;;;;;;;;20.10;65.70;;;;;;4984679;28;1990;-72
2023/11/24 11:57:12;;;;;;;;;;;20.10;64.90;;;;;;4980881;28;1461;-72
2023/11/24 11:59:38;;;;;;;;;;;20.10;65.00;;;;;;4989055;28;1259;-72
2023/11/24 12:02:04;;;;;;;;;;;20.00;65.00;;;;;;5000903;28;1993;-72
2023/11/24 12:04:30;;;;;;;;;;;20.00;65.00;;;;;;4988333;28;1370;-72
2023/11/24 12:06:55;;;;;;;;;;;20.00;65.00;;;;;;5004679;28;1584;-73
2023/11/24 12:09:21;;;;;;;;;;;20.00;65.10;;;;;;4988892;28;1518;-73
2023/11/24 12:11:46;;;;;;;;;;;20.00;65.10;;;;;;4988128;28;1411;-72
2023/11/24 12:14:12;;;;;;;;;;;20.00;65.10;;;;;;5002190;28;1285;-72
2023/11/24 12:16:38;;;;;;;;;;;20.00;65.10;;;;;;5000192;28;1510;-72
2023/11/24 12:19:07;;;;;;;;;;;20.00;65.10;;;;;;5001094;28;1274;-73
2023/11/24 12:21:32;;;;;;;;;;;20.00;65.10;;;;;;4984402;28;1903;-73
2023/11/24 12:23:57;;;;;;;;;;;20.00;65.10;;;;;;4989399;28;1361;-73
2023/11/24 12:26:23;;;;;;;;;;;20.00;65.10;;;;;;4982397;28;1659;-72
2023/11/24 12:28:48;;;;;;;;;;;20.00;65.00;;;;;;5000430;28;1573;-72
2023/11/24 12:31:14;;;;;;;;;;;20.00;65.00;;;;;;5001520;28;1242;-72
2023/11/24 12:33:39;;;;;;;;;;;20.00;65.00;;;;;;4999914;28;1853;-72
2023/11/24 12:36:05;;;;;;;;;;;20.10;65.00;;;;;;5002051;28;1848;-73
2023/11/24 12:38:31;;;;;;;;;;;20.00;64.90;;;;;;4998976;28;1444;-72
2023/11/24 12:40:56;;;;;;;;;;;20.10;64.90;;;;;;4989474;28;1907;-72
2023/11/24 12:43:22;;;;;;;;;;;20.10;64.90;;;;;;5000733;28;1586;-72
2023/11/24 12:45:48;;;;;;;;;;;20.10;64.80;;;;;;4999940;28;1315;-72
2023/11/24 12:48:19;;;;;;;;;;;20.10;64.80;;;;;;4978558;28;1149;-73
2023/11/24 12:50:45;;;;;;;;;;;20.10;64.70;;;;;;4999365;28;1373;-73
2023/11/24 12:53:11;;;;;;;;;;;20.10;64.80;;;;;;4998893;28;1355;-73
2023/11/24 12:55:39;;;;;;;;;;;20.10;64.70;;;;;;5000741;28;1332;-73
2023/11/24 12:58:05;;;;;;;;;;;20.10;64.70;;;;;;4992999;28;1349;-73
2023/11/24 13:00:30;;;;;;;;;;;20.10;64.70;;;;;;4985228;28;1922;-71
2023/11/24 13:02:56;;;;;;;;;;;20.10;64.70;;;;;;5003401;28;1351;-72
2023/11/24 13:05:21;;;;;;;;;;;20.10;64.60;;;;;;5002930;28;1534;-71
2023/11/24 13:07:47;;;;;;;;;;;20.10;64.60;;;;;;5004964;28;1426;-72
2023/11/24 13:10:12;;;;;;;;;;;20.10;64.60;;;;;;5003357;28;904;-74
2023/11/24 13:12:39;;;;;;;;;;;20.10;64.60;;;;;;4996421;28;1756;-72
2023/11/24 13:15:07;;;;;;;;;;;20.10;64.60;;;;;;5001353;28;1340;-73
2023/11/24 13:17:33;;;;;;;;;;;20.10;64.60;;;;;;4999675;28;1399;-74
2023/11/24 13:19:58;;;;;;;;;;;20.10;64.70;;;;;;4980371;28;1954;-73
2023/11/24 13:22:23;;;;;;;;;;;20.10;64.60;;;;;;5000322;28;1552;-72
2023/11/24 13:24:49;;;;;;;;;;;20.10;64.70;;;;;;5000864;28;1382;-71
2023/11/24 13:27:14;;;;;;;;;;;20.10;64.70;;;;;;5004697;28;1475;-73
2023/11/24 13:29:42;;;;;;;;;;;20.10;64.70;;;;;;5001278;28;1378;-71
2023/11/24 13:32:08;;;;;;;;;;;20.10;64.70;;;;;;5004850;28;1436;-71
2023/11/24 13:34:33;;;;;;;;;;;20.00;64.70;;;;;;5003963;28;1296;-72
2023/11/24 13:36:59;;;;;;;;;;;20.00;64.70;;;;;;4990738;28;1343;-72
2023/11/24 13:39:24;;;;;;;;;;;20.00;64.80;;;;;;5001607;28;1344;-72
2023/11/24 13:41:52;;;;;;;;;;;20.00;64.80;;;;;;5006038;28;1955;-72
2023/11/24 13:44:20;;;;;;;;;;;20.00;64.90;;;;;;5002056;28;1393;-73
2023/11/24 13:46:52;;;;;;;;;;;20.00;64.90;;;;;;4988030;28;1408;-72
2023/11/24 13:49:18;;;;;;;;;;;20.00;64.90;;;;;;4998344;28;1989;-73
2023/11/24 13:51:43;;;;;;;;;;;20.00;65.00;;;;;;5002333;28;2089;-72
2023/11/24 13:54:11;;;;;;;;;;;20.00;64.90;;;;;;4987003;28;1418;-73
2023/11/24 13:56:40;;;;;;;;;;;20.00;65.00;;;;;;4990711;28;1474;-73
2023/11/24 13:59:10;;;;;;;;;;;20.00;65.00;;;;;;4987348;28;1245;-73
2023/11/24 14:01:36;;;;;;;;;;;20.00;64.90;;;;;;4989278;28;1914;-73
2023/11/24 14:04:07;;;;;;;;;;;20.00;64.90;;;;;;5004305;28;1472;-73
2023/11/24 14:06:33;;;;;;;;;;;20.00;64.90;;;;;;5003074;28;1360;-73
2023/11/24 14:08:58;;;;;;;;;;;20.00;64.90;;;;;;5000805;28;1312;-74
2023/11/24 14:11:24;;;;;;;;;;;20.00;64.90;;;;;;5003115;28;1301;-74
2023/11/24 14:13:50;;;;;;;;;;;20.00;64.90;;;;;;5001670;28;1984;-75
2023/11/24 14:16:15;;;;;;;;;;;20.00;64.80;;;;;;5004603;28;1335;-74
2023/11/24 14:18:41;;;;;;;;;;;20.00;64.80;;;;;;4991813;28;1244;-74
2023/11/24 14:21:06;;;;;;;;;;;20.00;64.80;;;;;;4984122;28;2322;-74
2023/11/24 14:23:32;;;;;;;;;;;20.00;64.80;;;;;;4975097;28;1425;-74
2023/11/24 14:25:57;;;;;;;;;;;20.00;64.70;;;;;;5002524;28;2106;-74
2023/11/24 14:28:23;;;;;;;;;;;20.00;64.80;;;;;;4985523;28;2214;-73